Time;durP1;ratioP1;P1;durP2;ratioP2;P2;SDS_P1;SDS_P2;PMS_P1;PMS_P2;Temp;Humidity;BMP_temperature;BMP_pressure;BME280_temperature;BME280_humidity;BME280_pressure;Samples;Min_cycle;Max_cycle;Signal;HPM_P1;HPM_P2
2023/12/05 00:01:01;;;;;;;40.70;26.20;;;-3.10;74.60;;;;;;6251267;28;20254;-82
2023/12/05 00:04:05;;;;;;;44.23;27.43;;;-3.10;74.60;;;;;;6252155;28;20321;-81
2023/12/05 00:07:15;;;;;;;38.60;25.87;;;-3.10;74.70;;;;;;6252339;28;20234;-83
2023/12/05 00:10:18;;;;;;;40.53;25.67;;;-3.10;74.50;;;;;;6260219;28;20768;-83
2023/12/05 00:13:21;;;;;;;46.90;27.17;;;-3.20;74.80;;;;;;6254924;28;20235;-81
2023/12/05 00:16:27;;;;;;;42.93;26.97;;;-3.20;75.00;;;;;;6247620;28;20258;-82
2023/12/05 00:19:30;;;;;;;43.40;27.07;;;-3.20;75.00;;;;;;6259932;28;20234;-82
2023/12/05 00:22:33;;;;;;;43.50;27.23;;;-3.10;75.00;;;;;;6259277;28;20891;-82
2023/12/05 00:25:36;;;;;;;41.40;26.77;;;-3.10;74.80;;;;;;6249069;28;20241;-81
2023/12/05 00:28:39;;;;;;;44.60;25.87;;;-3.10;74.80;;;;;;6252284;28;20238;-82
2023/12/05 00:31:43;;;;;;;43.10;26.83;;;-3.10;74.90;;;;;;6249964;28;20848;-83
2023/12/05 00:34:46;;;;;;;40.37;26.00;;;-3.10;74.90;;;;;;6250850;28;21063;-82
2023/12/05 00:37:50;;;;;;;41.50;25.77;;;-3.10;74.70;;;;;;6256280;28;20234;-82
2023/12/05 00:40:53;;;;;;;42.87;27.73;;;-3.00;74.90;;;;;;6243611;28;20265;-83
2023/12/05 00:43:56;;;;;;;43.40;26.43;;;-3.00;74.70;;;;;;6250415;28;20251;-82
2023/12/05 00:47:05;;;;;;;37.17;24.90;;;-3.00;74.70;;;;;;6252418;28;20273;-82
2023/12/05 00:50:09;;;;;;;42.57;25.73;;;-2.90;74.50;;;;;;6260154;28;20242;-82
2023/12/05 00:53:12;;;;;;;38.90;25.70;;;-2.90;74.20;;;;;;6251751;28;21227;-81
2023/12/05 00:56:17;;;;;;;43.40;27.47;;;-2.80;74.00;;;;;;6258577;28;20287;-82
2023/12/05 00:59:20;;;;;;;41.87;27.77;;;-2.90;73.80;;;;;;6255120;28;20301;-82
2023/12/05 01:02:25;;;;;;;43.40;26.73;;;-2.90;73.90;;;;;;6245767;28;20667;-80
2023/12/05 01:05:28;;;;;;;45.77;27.20;;;-2.90;74.00;;;;;;6259492;28;20242;-82
2023/12/05 01:08:32;;;;;;;40.00;27.17;;;-2.90;74.20;;;;;;6259857;28;20238;-83
2023/12/05 01:11:36;;;;;;;43.13;26.27;;;-2.90;74.30;;;;;;6250651;28;20226;-83
2023/12/05 01:14:39;;;;;;;42.17;26.23;;;-2.90;74.10;;;;;;6258452;28;20654;-80
2023/12/05 01:17:44;;;;;;;42.40;25.90;;;-2.90;74.10;;;;;;6250780;28;20936;-82
2023/12/05 01:20:47;;;;;;;42.77;25.30;;;-2.80;74.00;;;;;;6251910;28;20237;-83
2023/12/05 01:23:50;;;;;;;41.60;25.53;;;-2.90;73.90;;;;;;6251876;28;20740;-83
2023/12/05 01:26:53;;;;;;;40.97;26.07;;;-2.90;74.00;;;;;;6258474;28;20718;-82
2023/12/05 01:29:57;;;;;;;43.83;26.67;;;-2.80;74.10;;;;;;6252157;28;20306;-84
2023/12/05 01:33:02;;;;;;;40.53;26.07;;;-2.80;74.00;;;;;;6252112;28;20246;-82
2023/12/05 01:36:10;;;;;;;39.43;26.07;;;-2.80;73.90;;;;;;6259074;28;20808;-81
2023/12/05 01:39:13;;;;;;;44.27;26.43;;;-2.80;74.00;;;;;;6247991;28;20538;-82
2023/12/05 01:42:16;;;;;;;40.03;26.33;;;-2.80;74.00;;;;;;6255704;28;20419;-84
2023/12/05 01:45:20;;;;;;;38.07;25.47;;;-2.80;74.10;;;;;;6260394;28;20768;-82
2023/12/05 01:48:25;;;;;;;39.77;25.30;;;-2.80;74.00;;;;;;6259854;28;20238;-82
2023/12/05 01:51:29;;;;;;;40.47;26.40;;;-2.80;74.10;;;;;;6256929;28;20324;-82
2023/12/05 01:54:33;;;;;;;45.60;26.83;;;-2.70;73.70;;;;;;6260484;28;20253;-81
2023/12/05 01:57:37;;;;;;;39.40;26.50;;;-2.80;73.80;;;;;;6260475;28;20835;-81
2023/12/05 02:00:40;;;;;;;40.83;25.40;;;-2.80;73.80;;;;;;6251145;28;20245;-81
2023/12/05 02:03:49;;;;;;;40.20;25.77;;;-2.80;74.10;;;;;;6251109;28;20249;-82
2023/12/05 02:06:53;;;;;;;37.77;25.37;;;-2.80;74.10;;;;;;6258092;28;20238;-81
2023/12/05 02:09:56;;;;;;;40.83;26.43;;;-2.70;74.00;;;;;;6257894;28;20234;-82
2023/12/05 02:13:02;;;;;;;40.73;25.63;;;-2.70;73.80;;;;;;6258858;28;20369;-81
2023/12/05 02:16:14;;;;;;;41.17;26.70;;;-2.70;73.80;;;;;;6254655;28;20383;-82
2023/12/05 02:19:40;;;;;;;42.57;27.20;;;-2.70;73.60;;;;;;6251965;28;20237;-82
2023/12/05 02:23:08;;;;;;;42.67;26.67;;;-2.70;73.60;;;;;;6254228;28;20314;-81
2023/12/05 02:26:23;;;;;;;37.30;25.50;;;-2.70;73.60;;;;;;6240832;28;20249;-82
2023/12/05 02:29:33;;;;;;;40.17;26.00;;;-2.70;73.60;;;;;;6258684;28;20241;-82
2023/12/05 02:32:37;;;;;;;41.97;25.53;;;-2.70;73.80;;;;;;6249561;28;20257;-84
2023/12/05 02:35:40;;;;;;;38.17;25.97;;;-2.70;73.70;;;;;;6258857;28;20234;-83
2023/12/05 02:38:53;;;;;;;46.40;26.27;;;-2.70;73.60;;;;;;6262783;28;20328;-81
2023/12/05 02:41:58;;;;;;;41.40;25.93;;;-2.60;73.40;;;;;;6253920;28;20629;-82
2023/12/05 02:45:05;;;;;;;48.70;27.77;;;-2.70;73.40;;;;;;6249329;28;20250;-83
2023/12/05 02:48:12;;;;;;;43.30;26.07;;;-2.70;73.60;;;;;;6251059;28;20381;-83
2023/12/05 02:51:15;;;;;;;36.90;24.77;;;-2.60;73.60;;;;;;6260453;28;20277;-81
2023/12/05 02:54:19;;;;;;;47.20;28.30;;;-2.60;73.50;;;;;;6254029;28;20238;-83
2023/12/05 02:57:23;;;;;;;36.97;24.93;;;-2.70;73.50;;;;;;6249783;28;20235;-83
2023/12/05 03:00:27;;;;;;;41.10;25.10;;;-2.60;73.60;;;;;;6254233;28;20234;-82
2023/12/05 03:03:30;;;;;;;42.23;26.30;;;-2.60;73.50;;;;;;6248914;28;20230;-82
2023/12/05 03:06:34;;;;;;;43.20;26.07;;;-2.60;73.40;;;;;;6257491;28;20238;-82
2023/12/05 03:09:37;;;;;;;42.63;25.97;;;-2.60;73.50;;;;;;6257020;28;20237;-83
2023/12/05 03:12:42;;;;;;;41.20;26.87;;;-2.60;73.50;;;;;;6271960;28;20242;-82
2023/12/05 03:15:46;;;;;;;43.57;27.13;;;-2.60;73.30;;;;;;6259096;28;20380;-81
2023/12/05 03:18:49;;;;;;;41.07;24.87;;;-2.60;73.50;;;;;;6254906;28;20245;-82
2023/12/05 03:21:54;;;;;;;42.53;26.23;;;-2.60;73.60;;;;;;6253513;28;20267;-82
2023/12/05 03:24:58;;;;;;;42.90;26.93;;;-2.60;73.70;;;;;;6253202;28;20962;-82
2023/12/05 03:28:01;;;;;;;42.03;26.87;;;-2.60;73.90;;;;;;6253870;28;20266;-84
2023/12/05 03:31:05;;;;;;;39.63;27.17;;;-2.60;73.90;;;;;;6256430;28;20466;-83
2023/12/05 03:34:11;;;;;;;41.23;26.47;;;-2.60;73.70;;;;;;6253675;28;20244;-81
2023/12/05 03:37:14;;;;;;;37.63;24.67;;;-2.60;73.80;;;;;;6256028;28;20235;-82
2023/12/05 03:40:17;;;;;;;45.00;26.63;;;-2.50;73.60;;;;;;6261645;28;20329;-81
2023/12/05 03:43:20;;;;;;;46.53;26.93;;;-2.50;73.50;;;;;;6255332;28;20328;-83
2023/12/05 03:46:24;;;;;;;40.23;25.53;;;-2.50;73.40;;;;;;6257985;28;20242;-83
2023/12/05 03:49:27;;;;;;;47.10;27.63;;;-2.50;73.60;;;;;;6259874;28;20314;-81
2023/12/05 03:52:31;;;;;;;43.40;27.83;;;-2.50;73.70;;;;;;6248862;28;20731;-82
2023/12/05 03:55:34;;;;;;;45.00;26.40;;;-2.40;73.60;;;;;;6225016;28;20337;-81
2023/12/05 03:58:37;;;;;;;37.13;25.80;;;-2.40;73.60;;;;;;6244518;28;20287;-82
2023/12/05 04:01:42;;;;;;;38.00;25.57;;;-2.40;73.60;;;;;;6259821;28;20230;-84
2023/12/05 04:04:45;;;;;;;39.73;25.33;;;-2.40;73.70;;;;;;6248195;28;20231;-82
2023/12/05 04:07:50;;;;;;;38.17;25.60;;;-2.50;74.00;;;;;;6251776;28;20242;-83
2023/12/05 04:10:53;;;;;;;38.23;25.67;;;-2.40;73.80;;;;;;6253740;28;20335;-83
2023/12/05 04:13:56;;;;;;;39.73;26.20;;;-2.40;73.80;;;;;;6252048;28;20276;-83
2023/12/05 04:17:00;;;;;;;42.07;26.23;;;-2.30;73.70;;;;;;6250545;28;20249;-81
2023/12/05 04:20:04;;;;;;;39.97;25.70;;;-2.30;73.60;;;;;;6261082;28;20232;-82
2023/12/05 04:23:07;;;;;;;39.97;27.07;;;-2.30;73.80;;;;;;6256898;28;20794;-81
2023/12/05 04:26:14;;;;;;;40.30;26.40;;;-2.30;73.70;;;;;;6251983;28;20264;-80
2023/12/05 04:29:17;;;;;;;42.40;26.87;;;-2.30;73.80;;;;;;6245541;28;20281;-83
2023/12/05 04:32:22;;;;;;;40.80;25.47;;;-2.30;73.80;;;;;;6250454;28;20315;-83
2023/12/05 04:35:25;;;;;;;41.07;26.20;;;-2.20;73.80;;;;;;6261259;28;20250;-83
2023/12/05 04:38:28;;;;;;;37.37;24.83;;;-2.10;73.60;;;;;;6251163;28;20241;-85
2023/12/05 04:41:33;;;;;;;42.30;27.47;;;-2.10;73.20;;;;;;6254502;28;20234;-81
2023/12/05 04:44:37;;;;;;;38.97;24.87;;;-2.20;73.40;;;;;;6241057;28;20321;-82
2023/12/05 04:47:41;;;;;;;39.30;25.33;;;-2.10;73.40;;;;;;6252365;28;20324;-83
2023/12/05 04:50:44;;;;;;;38.53;25.03;;;-2.20;73.50;;;;;;6253705;28;20230;-81
2023/12/05 04:53:47;;;;;;;39.70;26.23;;;-2.20;73.20;;;;;;6245437;28;20281;-83
2023/12/05 04:56:50;;;;;;;38.40;25.47;;;-2.20;73.30;;;;;;6246119;28;20352;-82
2023/12/05 04:59:54;;;;;;;41.20;25.90;;;-2.10;73.20;;;;;;6247735;28;20870;-83
2023/12/05 05:02:58;;;;;;;40.40;25.07;;;-2.20;73.40;;;;;;6249049;28;20258;-83
2023/12/05 05:06:01;;;;;;;38.87;26.83;;;-2.20;73.40;;;;;;6249652;28;20245;-83
2023/12/05 05:09:05;;;;;;;43.30;26.70;;;-2.20;73.40;;;;;;6250130;28;20245;-83
2023/12/05 05:12:10;;;;;;;40.37;26.47;;;-2.10;73.70;;;;;;6250889;28;20242;-82
2023/12/05 05:15:13;;;;;;;39.80;25.60;;;-2.10;73.60;;;;;;6258483;28;20320;-81
2023/12/05 05:18:18;;;;;;;46.67;28.23;;;-2.10;73.40;;;;;;6249578;28;20309;-83
2023/12/05 05:21:22;;;;;;;42.60;26.97;;;-2.20;73.50;;;;;;6249165;28;20234;-83
2023/12/05 05:24:25;;;;;;;40.40;26.57;;;-2.20;73.50;;;;;;6247224;28;21124;-83
2023/12/05 05:27:28;;;;;;;41.33;26.13;;;-2.10;73.50;;;;;;6247631;28;20238;-82
2023/12/05 05:30:31;;;;;;;41.87;27.10;;;-2.20;73.70;;;;;;6252437;28;20277;-83
2023/12/05 05:33:36;;;;;;;38.33;26.13;;;-2.20;73.60;;;;;;6254882;28;20238;-83
2023/12/05 05:36:40;;;;;;;39.67;27.03;;;-2.20;73.60;;;;;;6246317;28;20238;-84
2023/12/05 05:39:44;;;;;;;44.33;28.00;;;-2.20;73.80;;;;;;6245899;28;20227;-84
2023/12/05 05:42:47;;;;;;;40.43;26.17;;;-2.10;73.60;;;;;;6253728;28;20312;-81
2023/12/05 05:45:50;;;;;;;41.10;26.80;;;-2.10;73.50;;;;;;6249881;28;20253;-84
2023/12/05 05:48:55;;;;;;;39.40;26.67;;;-2.10;73.40;;;;;;6248157;28;20743;-82
2023/12/05 05:51:59;;;;;;;40.20;26.80;;;-2.10;73.30;;;;;;6252871;28;20707;-82
2023/12/05 05:55:02;;;;;;;40.43;26.67;;;-2.10;73.40;;;;;;6253816;28;20291;-83
2023/12/05 05:58:05;;;;;;;42.53;27.30;;;-2.00;73.40;;;;;;6247053;28;20741;-82
2023/12/05 06:01:08;;;;;;;40.57;26.23;;;-2.00;73.40;;;;;;6251703;28;20252;-86
2023/12/05 06:04:13;;;;;;;40.00;25.13;;;-2.00;73.50;;;;;;6252869;28;20405;-83
2023/12/05 06:07:17;;;;;;;37.90;25.47;;;-2.00;73.30;;;;;;6238503;28;20333;-85
2023/12/05 06:10:20;;;;;;;38.60;25.77;;;-1.90;73.20;;;;;;6248746;28;20243;-86
2023/12/05 06:13:23;;;;;;;36.70;23.97;;;-1.90;73.10;;;;;;6252427;28;20313;-85
2023/12/05 06:16:27;;;;;;;35.07;25.40;;;-1.90;73.20;;;;;;6253890;28;20416;-84
2023/12/05 06:19:31;;;;;;;40.80;27.00;;;-1.80;73.00;;;;;;6265784;28;20287;-83
2023/12/05 06:22:34;;;;;;;37.37;25.03;;;-1.80;73.00;;;;;;6252449;28;20240;-85
2023/12/05 06:25:39;;;;;;;40.57;26.73;;;-1.80;73.00;;;;;;6246007;28;20245;-84
2023/12/05 06:28:42;;;;;;;41.90;25.77;;;-1.80;73.30;;;;;;6256150;28;20627;-89
2023/12/05 06:31:45;;;;;;;38.43;25.30;;;-1.80;73.40;;;;;;6257257;28;20714;-86
2023/12/05 06:34:50;;;;;;;35.60;24.93;;;-1.80;73.20;;;;;;6258325;28;20797;-85
2023/12/05 06:37:53;;;;;;;35.27;25.60;;;-1.80;73.10;;;;;;6246083;28;20238;-84
2023/12/05 06:40:56;;;;;;;44.60;25.83;;;-1.90;73.10;;;;;;6250163;28;20237;-87
2023/12/05 06:43:59;;;;;;;33.80;24.97;;;-1.90;73.20;;;;;;6260781;28;20242;-87
2023/12/05 06:47:02;;;;;;;34.83;24.53;;;-1.90;73.20;;;;;;6257699;28;20620;-86
2023/12/05 06:50:10;;;;;;;39.17;25.93;;;-1.80;73.00;;;;;;6250064;28;20299;-87
2023/12/05 06:53:14;;;;;;;39.30;26.40;;;-1.80;73.10;;;;;;6257060;28;20246;-84
2023/12/05 06:56:19;;;;;;;35.77;25.47;;;-1.80;73.00;;;;;;6258449;28;20538;-86
2023/12/05 06:59:23;;;;;;;38.97;26.17;;;-1.90;73.10;;;;;;6254134;28;20246;-86
2023/12/05 07:02:26;;;;;;;39.90;25.83;;;-1.80;73.00;;;;;;6247887;28;20253;-86
2023/12/05 07:05:31;;;;;;;41.20;25.20;;;-1.80;72.70;;;;;;6252143;28;20863;-85
2023/12/05 07:08:34;;;;;;;38.97;25.53;;;-1.80;72.80;;;;;;6251103;28;20230;-87
2023/12/05 07:11:37;;;;;;;41.00;25.60;;;-1.80;72.60;;;;;;6257188;28;20679;-86
2023/12/05 07:14:40;;;;;;;39.23;25.33;;;-1.70;72.60;;;;;;6259583;28;20238;-86
2023/12/05 07:17:43;;;;;;;39.43;26.17;;;-1.70;72.60;;;;;;6247980;28;20268;-87
2023/12/05 07:20:48;;;;;;;35.20;24.90;;;-1.70;72.60;;;;;;6265137;28;20240;-85
2023/12/05 07:23:51;;;;;;;36.50;25.60;;;-1.70;72.70;;;;;;6257156;28;20246;-84
2023/12/05 07:27:03;;;;;;;39.07;26.37;;;-1.80;72.70;;;;;;6255541;28;20399;-88
2023/12/05 07:30:08;;;;;;;42.23;26.03;;;-1.70;72.90;;;;;;6260694;28;20241;-86
2023/12/05 07:33:11;;;;;;;36.07;25.13;;;-1.70;72.60;;;;;;6258164;28;20253;-85
2023/12/05 07:36:16;;;;;;;39.47;26.80;;;-1.70;72.50;;;;;;6259186;28;20237;-84
2023/12/05 07:39:19;;;;;;;35.73;25.50;;;-1.70;72.60;;;;;;6260582;28;20238;-85
2023/12/05 07:42:22;;;;;;;38.93;26.53;;;-1.70;72.70;;;;;;6261919;28;20795;-86
2023/12/05 07:45:25;;;;;;;38.80;26.13;;;-1.70;72.90;;;;;;6250927;28;20233;-85
2023/12/05 07:48:29;;;;;;;37.63;26.47;;;-1.60;72.80;;;;;;6263830;28;20260;-85
2023/12/05 07:51:33;;;;;;;41.00;26.40;;;-1.70;72.90;;;;;;6264910;28;20229;-87
2023/12/05 07:54:36;;;;;;;39.20;27.70;;;-1.70;72.80;;;;;;6261033;28;20748;-83
2023/12/05 07:57:40;;;;;;;42.70;27.30;;;-1.60;72.90;;;;;;6259639;28;20802;-85
2023/12/05 08:00:43;;;;;;;41.47;27.40;;;-1.60;72.60;;;;;;6263347;28;20230;-87
2023/12/05 08:03:46;;;;;;;41.03;27.10;;;-1.60;72.50;;;;;;6259562;28;20305;-88
2023/12/05 08:06:51;;;;;;;40.80;26.77;;;-1.60;72.80;;;;;;6253936;28;21930;-87
2023/12/05 08:09:54;;;;;;;37.57;26.20;;;-1.60;72.80;;;;;;6264473;28;20238;-87
2023/12/05 08:12:57;;;;;;;41.30;26.83;;;-1.50;72.70;;;;;;6267786;28;20256;-84
2023/12/05 08:16:00;;;;;;;40.03;26.20;;;-1.50;72.50;;;;;;6282632;28;20352;-86
2023/12/05 08:19:04;;;;;;;39.37;26.23;;;-1.40;72.20;;;;;;6259408;28;20234;-87
2023/12/05 08:22:09;;;;;;;38.53;27.07;;;-1.30;72.00;;;;;;6265150;28;20330;-86
2023/12/05 08:25:12;;;;;;;42.87;27.03;;;-1.40;72.10;;;;;;6259916;28;20242;-87
2023/12/05 08:28:15;;;;;;;42.40;27.40;;;-1.30;72.20;;;;;;6256092;28;20239;-89
2023/12/05 08:31:18;;;;;;;39.00;26.70;;;-1.20;72.00;;;;;;6259624;28;20268;-86
2023/12/05 08:34:21;;;;;;;40.13;26.83;;;-1.10;71.70;;;;;;6258835;28;20247;-86
2023/12/05 08:37:27;;;;;;;43.10;26.67;;;-1.10;71.50;;;;;;6253214;28;20237;-86
2023/12/05 08:40:30;;;;;;;43.40;28.77;;;-1.10;71.80;;;;;;6255854;28;20253;-87
2023/12/05 08:43:33;;;;;;;38.93;27.03;;;-1.10;71.40;;;;;;6244850;28;20241;-89
2023/12/05 08:46:37;;;;;;;37.70;26.50;;;-1.10;71.30;;;;;;6244851;28;20238;-88
2023/12/05 08:49:41;;;;;;;44.70;27.67;;;-1.10;71.50;;;;;;6269598;28;20317;-86
2023/12/05 08:52:46;;;;;;;44.17;27.27;;;-1.10;71.10;;;;;;6255229;28;20234;-87
2023/12/05 08:55:49;;;;;;;38.30;26.80;;;-1.10;71.20;;;;;;6254366;28;20250;-86
2023/12/05 08:58:52;;;;;;;39.80;27.70;;;-1.10;71.30;;;;;;6241873;28;20383;-82
2023/12/05 09:01:55;;;;;;;43.57;28.90;;;-1.10;71.50;;;;;;6251588;28;21056;-87
2023/12/05 09:05:00;;;;;;;43.63;28.60;;;-1.00;71.40;;;;;;6262470;28;20806;-86
2023/12/05 09:08:05;;;;;;;37.77;27.60;;;-1.00;71.60;;;;;;6276540;28;20245;-85
2023/12/05 09:11:09;;;;;;;40.47;27.77;;;-0.90;71.40;;;;;;6269138;28;20284;-87
2023/12/05 09:14:12;;;;;;;38.90;25.80;;;-0.80;71.20;;;;;;6269391;28;20245;-87
2023/12/05 09:17:20;;;;;;;37.67;26.37;;;-0.80;71.00;;;;;;6253840;28;20913;-87
2023/12/05 09:20:23;;;;;;;39.50;27.13;;;-0.80;71.00;;;;;;6260424;28;20723;-85
2023/12/05 09:23:27;;;;;;;44.17;27.40;;;-0.70;71.10;;;;;;6254503;28;20238;-86
2023/12/05 09:26:31;;;;;;;37.13;26.43;;;-0.60;70.90;;;;;;6259110;28;20240;-85
2023/12/05 09:29:35;;;;;;;40.03;26.07;;;-0.60;70.50;;;;;;6264539;28;20250;-84
2023/12/05 09:32:52;;;;;;;38.83;26.03;;;-0.50;70.50;;;;;;6282362;28;20246;-84
2023/12/05 09:35:58;;;;;;;38.30;25.90;;;-0.40;70.20;;;;;;6270335;28;20283;-88
2023/12/05 09:39:04;;;;;;;36.33;25.17;;;-0.50;70.20;;;;;;6257158;28;20302;-87
2023/12/05 09:42:10;;;;;;;37.37;26.43;;;-0.40;70.10;;;;;;6245126;28;20316;-86
2023/12/05 09:45:16;;;;;;;39.17;25.63;;;-0.30;70.00;;;;;;6262112;28;20247;-86
2023/12/05 09:48:23;;;;;;;35.97;25.07;;;-0.20;69.70;;;;;;6254128;28;20241;-85
2023/12/05 09:51:26;;;;;;;37.83;26.90;;;-0.20;69.80;;;;;;6262436;28;20226;-83
2023/12/05 09:54:34;;;;;;;35.87;26.03;;;-0.10;69.90;;;;;;6267858;28;20355;-85
2023/12/05 09:57:41;;;;;;;36.80;25.93;;;-0.10;69.50;;;;;;6256880;28;20246;-88
2023/12/05 10:00:44;;;;;;;36.93;26.10;;;-0.10;69.10;;;;;;6257246;28;20301;-87
2023/12/05 10:03:54;;;;;;;41.93;25.17;;;-0.10;69.40;;;;;;6277542;28;20254;-85
2023/12/05 10:07:00;;;;;;;36.90;25.33;;;-0.10;69.20;;;;;;6291819;28;20241;-84
2023/12/05 10:10:07;;;;;;;34.87;24.73;;;-0.10;69.30;;;;;;6277123;28;20333;-85
2023/12/05 10:13:12;;;;;;;34.20;24.03;;;-0.10;69.50;;;;;;6266928;28;20288;-86
2023/12/05 10:16:17;;;;;;;35.73;24.80;;;-0.10;69.80;;;;;;6271792;28;20234;-87
2023/12/05 10:19:21;;;;;;;34.23;24.60;;;-0.10;69.40;;;;;;6276922;28;20274;-82
2023/12/05 10:22:26;;;;;;;33.80;25.33;;;-0.10;69.40;;;;;;6283977;28;20255;-87
2023/12/05 10:25:32;;;;;;;34.57;25.63;;;0.00;69.20;;;;;;6279179;28;20242;-85
2023/12/05 10:28:49;;;;;;;35.93;24.87;;;0.00;69.20;;;;;;6274984;28;20253;-86
2023/12/05 10:31:54;;;;;;;37.23;25.17;;;-0.10;69.50;;;;;;6286576;28;20230;-86
2023/12/05 10:34:58;;;;;;;36.23;24.93;;;-0.10;69.80;;;;;;6267453;28;20308;-84
2023/12/05 10:38:05;;;;;;;34.63;23.83;;;-0.10;69.80;;;;;;6261561;28;20312;-85
2023/12/05 10:41:10;;;;;;;32.60;23.60;;;-0.10;69.70;;;;;;6270696;28;20272;-89
2023/12/05 10:44:15;;;;;;;34.07;23.57;;;-0.10;69.90;;;;;;6264202;28;20238;-86
2023/12/05 10:47:18;;;;;;;33.97;23.90;;;-0.10;69.60;;;;;;6265881;28;20242;-88
2023/12/05 10:50:23;;;;;;;37.33;24.10;;;-0.10;69.60;;;;;;6261482;28;20234;-85
2023/12/05 10:53:27;;;;;;;33.43;23.80;;;0.00;69.70;;;;;;6258541;28;20280;-86
2023/12/05 10:56:31;;;;;;;31.43;23.33;;;0.00;69.50;;;;;;6268202;28;20405;-88
2023/12/05 10:59:35;;;;;;;34.37;24.83;;;0.00;69.40;;;;;;6270196;28;20249;-86
2023/12/05 11:02:39;;;;;;;33.53;24.47;;;0.00;69.30;;;;;;6255851;28;20235;-90
2023/12/05 11:05:42;;;;;;;28.37;22.10;;;0.00;69.50;;;;;;6255377;28;20265;-86
2023/12/05 11:08:46;;;;;;;33.37;23.53;;;0.20;69.50;;;;;;6260834;28;20240;-89
2023/12/05 11:11:54;;;;;;;30.10;22.73;;;0.10;69.10;;;;;;6246487;28;20237;-87
2023/12/05 11:15:01;;;;;;;28.27;21.53;;;0.20;69.20;;;;;;6273015;28;20242;-89
2023/12/05 11:18:13;;;;;;;29.40;21.93;;;0.30;68.90;;;;;;6258163;28;20252;-86
2023/12/05 11:21:31;;;;;;;30.47;22.43;;;0.30;68.60;;;;;;6259896;28;20236;-86
2023/12/05 11:24:57;;;;;;;31.40;22.87;;;0.40;68.30;;;;;;6251585;28;20309;-86
2023/12/05 11:28:18;;;;;;;29.80;22.13;;;0.40;68.20;;;;;;6260705;28;20242;-88
2023/12/05 11:31:30;;;;;;;31.27;22.90;;;0.40;68.40;;;;;;6252046;28;20259;-85
2023/12/05 11:34:46;;;;;;;34.47;23.53;;;0.50;68.30;;;;;;6232856;28;20321;-84
2023/12/05 11:38:05;;;;;;;30.70;22.63;;;0.60;68.10;;;;;;6256800;28;20267;-87
2023/12/05 11:41:12;;;;;;;31.67;22.47;;;0.60;68.00;;;;;;6266504;28;20847;-87
2023/12/05 11:44:21;;;;;;;28.77;21.53;;;0.80;67.50;;;;;;6270525;28;20230;-85
2023/12/05 11:47:25;;;;;;;31.20;23.40;;;0.80;67.60;;;;;;6268351;28;20237;-86
2023/12/05 11:50:40;;;;;;;30.30;22.50;;;0.60;68.40;;;;;;6260723;28;20222;-87
2023/12/05 11:53:48;;;;;;;28.77;21.73;;;0.60;68.50;;;;;;6259614;28;20361;-85
2023/12/05 11:57:20;;;;;;;31.73;23.17;;;0.60;68.70;;;;;;6267114;28;20445;-84
2023/12/05 12:00:27;;;;;;;27.23;21.10;;;0.70;68.80;;;;;;6260036;28;20266;-85
2023/12/05 12:03:44;;;;;;;30.97;23.37;;;0.80;68.70;;;;;;6273062;28;20314;-88
2023/12/05 12:06:49;;;;;;;33.27;23.80;;;0.80;68.10;;;;;;6256680;28;20923;-84
2023/12/05 12:09:53;;;;;;;30.20;21.63;;;0.70;68.50;;;;;;6270305;28;20502;-83
2023/12/05 12:13:03;;;;;;;27.33;22.03;;;0.80;68.20;;;;;;6261979;28;20242;-87
2023/12/05 12:16:08;;;;;;;26.93;20.80;;;0.90;68.00;;;;;;6272364;28;20254;-84
2023/12/05 12:19:12;;;;;;;27.40;21.77;;;1.00;67.90;;;;;;6273920;28;20496;-87
2023/12/05 12:22:18;;;;;;;28.60;21.23;;;0.90;68.20;;;;;;6258713;28;20273;-87
2023/12/05 12:25:24;;;;;;;30.03;21.93;;;0.80;68.40;;;;;;6267284;28;20238;-86
2023/12/05 12:28:31;;;;;;;25.37;20.53;;;0.80;68.80;;;;;;6264062;28;20249;-84
2023/12/05 12:31:37;;;;;;;27.97;21.43;;;0.80;68.70;;;;;;6265280;28;20238;-86
2023/12/05 12:34:44;;;;;;;29.00;22.10;;;0.60;69.10;;;;;;6266604;28;20246;-86
2023/12/05 12:37:47;;;;;;;28.73;22.67;;;0.60;69.60;;;;;;6262512;28;20241;-85
2023/12/05 12:40:58;;;;;;;28.10;21.53;;;0.60;69.60;;;;;;6281787;28;20718;-85
2023/12/05 12:44:05;;;;;;;33.37;21.67;;;0.60;69.60;;;;;;6256020;28;20245;-86
2023/12/05 12:47:13;;;;;;;28.93;21.90;;;0.60;69.90;;;;;;6254458;28;20336;-80
2023/12/05 12:50:17;;;;;;;30.93;23.00;;;0.60;70.40;;;;;;6247337;28;20242;-80
2023/12/05 12:53:20;;;;;;;29.93;22.47;;;0.60;70.10;;;;;;6260344;28;20764;-80
2023/12/05 12:56:24;;;;;;;28.20;21.70;;;0.60;70.30;;;;;;6257560;28;20336;-82
2023/12/05 12:59:27;;;;;;;27.97;22.33;;;0.70;70.40;;;;;;6258147;28;20741;-81
2023/12/05 13:02:33;;;;;;;31.83;23.13;;;0.80;70.10;;;;;;6250204;28;20955;-80
2023/12/05 13:05:37;;;;;;;31.30;22.97;;;0.60;70.30;;;;;;6255811;28;20743;-82
2023/12/05 13:08:41;;;;;;;31.23;23.53;;;0.60;70.90;;;;;;6246203;28;20242;-80
2023/12/05 13:11:45;;;;;;;31.53;23.50;;;0.70;70.80;;;;;;6259541;28;20479;-81
2023/12/05 13:14:49;;;;;;;31.57;23.23;;;0.80;70.80;;;;;;6256032;28;20636;-81
2023/12/05 13:18:01;;;;;;;32.20;23.93;;;0.60;71.10;;;;;;6244777;28;20246;-80
2023/12/05 13:21:05;;;;;;;34.63;24.50;;;0.60;71.30;;;;;;6252500;28;20317;-81
2023/12/05 13:24:09;;;;;;;33.03;24.03;;;0.60;71.50;;;;;;6258046;28;20252;-80
2023/12/05 13:27:13;;;;;;;30.50;23.23;;;0.50;71.60;;;;;;6260749;28;20606;-82
2023/12/05 13:30:17;;;;;;;35.33;24.70;;;0.60;71.50;;;;;;6260697;28;20233;-81
2023/12/05 13:33:21;;;;;;;31.03;23.70;;;0.50;71.40;;;;;;6255767;28;20233;-80
2023/12/05 13:36:25;;;;;;;34.17;24.63;;;0.50;71.40;;;;;;6250609;28;20260;-82
2023/12/05 13:39:28;;;;;;;33.50;24.80;;;0.50;71.50;;;;;;6245669;28;20307;-82
2023/12/05 13:42:33;;;;;;;34.87;25.27;;;0.40;71.80;;;;;;6264775;28;20234;-81
2023/12/05 13:45:36;;;;;;;31.47;24.07;;;0.20;72.30;;;;;;6274704;28;20241;-82
2023/12/05 13:48:40;;;;;;;33.50;25.37;;;0.20;72.40;;;;;;6265145;28;20245;-81
2023/12/05 13:51:44;;;;;;;30.03;23.83;;;0.20;72.50;;;;;;6279332;28;20546;-77
2023/12/05 13:54:47;;;;;;;37.30;26.03;;;0.00;72.60;;;;;;6270641;28;20241;-81
2023/12/05 13:57:50;;;;;;;30.60;23.83;;;0.10;72.80;;;;;;6261580;28;20244;-79
2023/12/05 14:00:53;;;;;;;34.50;25.00;;;0.10;72.80;;;;;;6267661;28;20241;-80
2023/12/05 14:03:58;;;;;;;33.33;23.93;;;0.00;72.80;;;;;;6267590;28;20277;-82
2023/12/05 14:07:01;;;;;;;35.03;25.60;;;0.00;73.10;;;;;;6263191;28;20733;-83
2023/12/05 14:10:05;;;;;;;37.20;26.20;;;0.00;73.30;;;;;;6264440;28;20242;-79
2023/12/05 14:13:09;;;;;;;44.80;27.30;;;0.00;73.50;;;;;;6249527;28;20285;-82
2023/12/05 14:16:12;;;;;;;37.77;25.77;;;0.00;73.50;;;;;;6265042;28;20249;-85
2023/12/05 14:19:17;;;;;;;48.67;28.07;;;0.00;73.80;;;;;;6262958;28;20210;-80
2023/12/05 14:22:45;;;;;;;33.30;25.60;;;0.00;73.90;;;;;;6267043;28;20206;-80
2023/12/05 14:26:11;;;;;;;36.03;26.17;;;-0.10;74.30;;;;;;6290904;28;20315;-81
2023/12/05 14:29:39;;;;;;;37.63;26.23;;;0.00;74.40;;;;;;6274025;28;20225;-83
2023/12/05 14:32:42;;;;;;;39.43;27.53;;;-0.10;74.50;;;;;;6310310;28;20244;-82
2023/12/05 14:35:47;;;;;;;42.57;27.17;;;-0.10;74.80;;;;;;6293408;28;20241;-82
2023/12/05 14:38:50;;;;;;;44.07;28.23;;;-0.10;75.10;;;;;;6286133;28;20230;-81
2023/12/05 14:42:11;;;;;;;38.50;27.67;;;-0.20;75.70;;;;;;6301050;28;20380;-81
2023/12/05 14:45:15;;;;;;;40.47;28.80;;;-0.20;76.00;;;;;;6300967;28;20314;-80
2023/12/05 14:48:19;;;;;;;40.00;28.23;;;-0.20;76.10;;;;;;6294574;28;20348;-82
2023/12/05 14:51:24;;;;;;;40.23;28.90;;;-0.30;76.40;;;;;;6270887;28;20233;-81
2023/12/05 14:54:29;;;;;;;43.47;29.67;;;-0.20;76.20;;;;;;6299096;28;20229;-82
2023/12/05 14:57:32;;;;;;;41.17;28.43;;;-0.20;75.80;;;;;;6298914;28;20241;-82
2023/12/05 15:00:35;;;;;;;44.60;29.47;;;-0.30;76.00;;;;;;6290043;28;20237;-81
2023/12/05 15:03:39;;;;;;;41.63;28.57;;;-0.40;76.10;;;;;;6291244;28;20827;-85
2023/12/05 15:06:44;;;;;;;39.33;27.80;;;-0.30;76.10;;;;;;6292859;28;20229;-83
2023/12/05 15:09:47;;;;;;;45.67;27.83;;;-0.30;75.90;;;;;;6279456;28;20225;-82
2023/12/05 15:12:55;;;;;;;36.80;26.00;;;-0.30;75.70;;;;;;6298100;28;20367;-81
2023/12/05 15:15:58;;;;;;;38.30;27.73;;;-0.30;75.90;;;;;;6284959;28;20233;-81
2023/12/05 15:19:01;;;;;;;41.50;28.17;;;-0.30;76.00;;;;;;6295552;28;20824;-81
2023/12/05 15:22:06;;;;;;;41.63;29.07;;;-0.30;75.90;;;;;;6300854;28;20699;-82
2023/12/05 15:25:10;;;;;;;43.30;30.23;;;-0.30;75.90;;;;;;6288939;28;20242;-83
2023/12/05 15:28:14;;;;;;;47.20;29.40;;;-0.30;76.20;;;;;;6295282;28;20241;-82
2023/12/05 15:31:18;;;;;;;42.57;28.60;;;-0.30;76.20;;;;;;6302468;28;20241;-82
2023/12/05 15:34:21;;;;;;;40.47;28.97;;;-0.40;76.40;;;;;;6290608;28;20240;-84
2023/12/05 15:37:27;;;;;;;40.47;28.83;;;-0.30;76.50;;;;;;6289470;28;20237;-82
2023/12/05 15:40:30;;;;;;;45.70;28.50;;;-0.30;76.50;;;;;;6288254;28;20329;-82